sensor_id;sensor_type;location;lat;lon;timestamp;P1;durP1;ratioP1;P2;durP2;ratioP2
76735;SDS011;70098;44.562;0.086;2024-03-25T00:04:00;11.90;;;2.13;;
76735;SDS011;70098;44.562;0.086;2024-03-25T00:19:19;6.57;;;2.10;;
76735;SDS011;70098;44.562;0.086;2024-03-25T00:34:39;7.67;;;1.63;;
76735;SDS011;70098;44.562;0.086;2024-03-25T00:50:00;10.93;;;1.80;;
76735;SDS011;70098;44.562;0.086;2024-03-25T01:05:20;9.70;;;2.20;;
76735;SDS011;70098;44.562;0.086;2024-03-25T01:20:39;6.43;;;1.70;;
76735;SDS011;70098;44.562;0.086;2024-03-25T01:35:59;10.40;;;1.83;;
76735;SDS011;70098;44.562;0.086;2024-03-25T01:51:19;11.20;;;2.00;;
76735;SDS011;70098;44.562;0.086;2024-03-25T02:06:39;3.57;;;1.20;;
76735;SDS011;70098;44.562;0.086;2024-03-25T02:21:59;5.33;;;1.37;;
76735;SDS011;70098;44.562;0.086;2024-03-25T02:37:19;5.13;;;1.00;;
76735;SDS011;70098;44.562;0.086;2024-03-25T02:52:39;5.07;;;1.70;;
76735;SDS011;70098;44.562;0.086;2024-03-25T03:07:58;6.90;;;1.23;;
76735;SDS011;70098;44.562;0.086;2024-03-25T03:23:17;7.93;;;1.47;;
76735;SDS011;70098;44.562;0.086;2024-03-25T03:38:36;6.03;;;1.23;;
76735;SDS011;70098;44.562;0.086;2024-03-25T03:53:54;4.27;;;1.60;;
76735;SDS011;70098;44.562;0.086;2024-03-25T04:09:13;4.93;;;1.73;;
76735;SDS011;70098;44.562;0.086;2024-03-25T04:24:32;9.47;;;1.57;;
76735;SDS011;70098;44.562;0.086;2024-03-25T04:39:52;8.37;;;1.70;;
76735;SDS011;70098;44.562;0.086;2024-03-25T04:55:12;3.57;;;1.37;;
76735;SDS011;70098;44.562;0.086;2024-03-25T05:10:30;4.33;;;1.37;;
76735;SDS011;70098;44.562;0.086;2024-03-25T05:25:49;12.40;;;2.20;;
76735;SDS011;70098;44.562;0.086;2024-03-25T05:41:09;6.43;;;2.50;;
76735;SDS011;70098;44.562;0.086;2024-03-25T05:56:29;5.83;;;2.03;;
76735;SDS011;70098;44.562;0.086;2024-03-25T06:11:50;6.20;;;1.80;;
76735;SDS011;70098;44.562;0.086;2024-03-25T06:27:09;5.90;;;1.90;;
76735;SDS011;70098;44.562;0.086;2024-03-25T06:42:30;5.87;;;1.93;;
76735;SDS011;70098;44.562;0.086;2024-03-25T06:57:50;6.10;;;2.27;;
76735;SDS011;70098;44.562;0.086;2024-03-25T07:13:10;12.10;;;1.80;;
76735;SDS011;70098;44.562;0.086;2024-03-25T07:28:31;3.60;;;1.60;;
76735;SDS011;70098;44.562;0.086;2024-03-25T07:43:52;4.97;;;1.70;;
76735;SDS011;70098;44.562;0.086;2024-03-25T07:59:12;4.80;;;1.47;;
76735;SDS011;70098;44.562;0.086;2024-03-25T08:14:33;4.07;;;1.00;;
76735;SDS011;70098;44.562;0.086;2024-03-25T08:29:55;2.93;;;1.23;;
76735;SDS011;70098;44.562;0.086;2024-03-25T08:45:16;1.27;;;0.80;;
76735;SDS011;70098;44.562;0.086;2024-03-25T09:00:35;2.77;;;1.07;;
76735;SDS011;70098;44.562;0.086;2024-03-25T09:15:55;3.53;;;1.03;;
76735;SDS011;70098;44.562;0.086;2024-03-25T09:31:16;2.93;;;0.93;;
76735;SDS011;70098;44.562;0.086;2024-03-25T09:46:37;9.80;;;1.53;;
76735;SDS011;70098;44.562;0.086;2024-03-25T10:01:56;5.80;;;1.53;;
76735;SDS011;70098;44.562;0.086;2024-03-25T10:17:16;3.40;;;0.83;;
76735;SDS011;70098;44.562;0.086;2024-03-25T10:32:35;4.73;;;1.13;;
76735;SDS011;70098;44.562;0.086;2024-03-25T10:47:57;1.13;;;0.60;;
76735;SDS011;70098;44.562;0.086;2024-03-25T11:03:16;0.60;;;0.60;;
76735;SDS011;70098;44.562;0.086;2024-03-25T11:18:37;1.50;;;0.63;;
76735;SDS011;70098;44.562;0.086;2024-03-25T11:33:55;2.80;;;0.73;;
76735;SDS011;70098;44.562;0.086;2024-03-25T11:49:15;1.13;;;1.00;;
76735;SDS011;70098;44.562;0.086;2024-03-25T12:04:34;2.87;;;1.30;;
76735;SDS011;70098;44.562;0.086;2024-03-25T12:19:58;3.27;;;1.30;;
76735;SDS011;70098;44.562;0.086;2024-03-25T12:35:16;3.07;;;0.90;;
76735;SDS011;70098;44.562;0.086;2024-03-25T12:50:37;0.97;;;0.80;;
76735;SDS011;70098;44.562;0.086;2024-03-25T13:05:56;2.80;;;1.10;;
76735;SDS011;70098;44.562;0.086;2024-03-25T13:21:14;1.57;;;0.73;;
76735;SDS011;70098;44.562;0.086;2024-03-25T13:36:34;2.83;;;0.90;;
76735;SDS011;70098;44.562;0.086;2024-03-25T13:51:56;2.13;;;1.00;;
76735;SDS011;70098;44.562;0.086;2024-03-25T14:07:11;5.10;;;1.10;;
76735;SDS011;70098;44.562;0.086;2024-03-25T14:22:30;1.33;;;1.00;;
76735;SDS011;70098;44.562;0.086;2024-03-25T14:37:50;2.10;;;1.30;;
76735;SDS011;70098;44.562;0.086;2024-03-25T14:53:08;8.90;;;1.73;;
76735;SDS011;70098;44.562;0.086;2024-03-25T15:08:27;5.20;;;2.00;;
76735;SDS011;70098;44.562;0.086;2024-03-25T15:23:46;9.17;;;3.57;;
76735;SDS011;70098;44.562;0.086;2024-03-25T15:39:05;5.10;;;3.20;;
76735;SDS011;70098;44.562;0.086;2024-03-25T15:54:26;9.40;;;2.43;;
76735;SDS011;70098;44.562;0.086;2024-03-25T16:09:45;7.37;;;2.30;;
76735;SDS011;70098;44.562;0.086;2024-03-25T16:25:04;3.23;;;1.83;;
76735;SDS011;70098;44.562;0.086;2024-03-25T16:40:24;3.83;;;1.77;;
76735;SDS011;70098;44.562;0.086;2024-03-25T16:55:44;13.80;;;1.97;;
76735;SDS011;70098;44.562;0.086;2024-03-25T17:11:04;5.93;;;1.30;;
76735;SDS011;70098;44.562;0.086;2024-03-25T17:26:23;8.07;;;2.13;;
76735;SDS011;70098;44.562;0.086;2024-03-25T17:41:42;6.60;;;1.93;;
76735;SDS011;70098;44.562;0.086;2024-03-25T17:57:02;3.93;;;1.97;;
76735;SDS011;70098;44.562;0.086;2024-03-25T18:12:22;11.03;;;2.23;;
76735;SDS011;70098;44.562;0.086;2024-03-25T18:27:41;6.90;;;2.00;;
76735;SDS011;70098;44.562;0.086;2024-03-25T18:43:01;5.40;;;1.50;;
76735;SDS011;70098;44.562;0.086;2024-03-25T18:58:20;6.33;;;1.63;;
76735;SDS011;70098;44.562;0.086;2024-03-25T19:13:38;5.60;;;2.00;;
76735;SDS011;70098;44.562;0.086;2024-03-25T19:28:58;5.07;;;2.00;;
76735;SDS011;70098;44.562;0.086;2024-03-25T19:44:18;6.43;;;1.97;;
76735;SDS011;70098;44.562;0.086;2024-03-25T19:59:36;8.13;;;2.00;;
76735;SDS011;70098;44.562;0.086;2024-03-25T20:14:57;12.60;;;2.20;;
76735;SDS011;70098;44.562;0.086;2024-03-25T20:30:16;5.33;;;3.07;;
76735;SDS011;70098;44.562;0.086;2024-03-25T20:45:35;12.53;;;3.27;;
76735;SDS011;70098;44.562;0.086;2024-03-25T21:00:54;17.47;;;4.63;;
76735;SDS011;70098;44.562;0.086;2024-03-25T21:16:15;13.43;;;4.43;;
76735;SDS011;70098;44.562;0.086;2024-03-25T21:31:34;16.00;;;6.30;;
76735;SDS011;70098;44.562;0.086;2024-03-25T21:46:53;15.37;;;7.37;;
76735;SDS011;70098;44.562;0.086;2024-03-25T22:02:13;15.13;;;4.43;;
76735;SDS011;70098;44.562;0.086;2024-03-25T22:17:33;37.27;;;8.93;;
76735;SDS011;70098;44.562;0.086;2024-03-25T22:32:53;30.90;;;8.77;;
76735;SDS011;70098;44.562;0.086;2024-03-25T22:48:12;22.53;;;9.10;;
76735;SDS011;70098;44.562;0.086;2024-03-25T23:03:32;37.97;;;13.47;;
76735;SDS011;70098;44.562;0.086;2024-03-25T23:18:51;18.63;;;9.27;;
76735;SDS011;70098;44.562;0.086;2024-03-25T23:34:11;16.87;;;9.17;;
76735;SDS011;70098;44.562;0.086;2024-03-25T23:49:32;13.53;;;8.67;;
